Time;durP1;ratioP1;P1;durP2;ratioP2;P2;SDS_P1;SDS_P2;PMS_P1;PMS_P2;Temp;Humidity;BMP_temperature;BMP_pressure;BME280_temperature;BME280_humidity;BME280_pressure;Samples;Min_cycle;Max_cycle;Signal;HPM_P1;HPM_P2
2021/03/14 00:00:36;;;;;;;15.57;8.75;;;4.10;99.90;;;;;;4999541;28;20364;-71
2021/03/14 00:03:03;;;;;;;14.27;8.60;;;4.10;99.90;;;;;;4998382;28;20460;-71
2021/03/14 00:05:30;;;;;;;14.15;8.60;;;4.00;99.90;;;;;;4997314;28;20515;-71
2021/03/14 00:07:56;;;;;;;14.93;9.32;;;4.10;99.90;;;;;;4998356;28;20100;-70
2021/03/14 00:10:22;;;;;;;12.73;7.60;;;4.00;99.90;;;;;;4998580;28;20496;-71
2021/03/14 00:12:48;;;;;;;12.88;8.35;;;4.00;99.90;;;;;;4998380;28;20046;-71
2021/03/14 00:15:21;;;;;;;12.23;7.88;;;4.00;99.90;;;;;;4999152;28;20113;-70
2021/03/14 00:17:47;;;;;;;13.18;7.40;;;3.90;99.90;;;;;;4997143;28;20576;-70
2021/03/14 00:20:13;;;;;;;11.18;6.70;;;3.90;99.90;;;;;;4999416;28;20041;-70
2021/03/14 00:22:39;;;;;;;12.98;6.63;;;3.90;99.90;;;;;;4998688;28;20049;-70
2021/03/14 00:25:09;;;;;;;14.40;7.05;;;3.90;99.90;;;;;;4998047;28;20026;-70
2021/03/14 00:27:36;;;;;;;11.43;6.63;;;3.90;99.90;;;;;;4997813;28;20044;-70
2021/03/14 00:30:04;;;;;;;11.88;6.30;;;3.90;99.90;;;;;;4999161;28;20064;-70
2021/03/14 00:32:30;;;;;;;11.18;6.10;;;3.80;99.90;;;;;;4998616;28;20068;-69
2021/03/14 00:34:56;;;;;;;11.82;5.70;;;3.80;99.90;;;;;;4996810;28;20540;-69
2021/03/14 00:37:22;;;;;;;9.75;5.78;;;3.80;99.90;;;;;;4998554;28;20603;-70
2021/03/14 00:39:48;;;;;;;10.65;5.90;;;3.70;99.90;;;;;;4996994;28;20439;-70
2021/03/14 00:42:14;;;;;;;10.48;5.25;;;3.70;99.90;;;;;;4998222;28;20034;-70
2021/03/14 00:44:39;;;;;;;9.63;5.85;;;3.60;99.90;;;;;;4997738;28;20076;-70
2021/03/14 00:47:05;;;;;;;9.68;5.25;;;3.70;99.90;;;;;;4997732;28;20088;-70
2021/03/14 00:49:31;;;;;;;9.93;5.30;;;3.60;99.90;;;;;;4998919;28;20576;-70
2021/03/14 00:51:57;;;;;;;9.10;5.32;;;3.60;99.90;;;;;;4997215;28;20131;-70
2021/03/14 00:54:23;;;;;;;10.00;5.63;;;3.60;99.90;;;;;;4997402;28;20477;-70
2021/03/14 00:56:48;;;;;;;9.00;4.88;;;3.60;99.90;;;;;;4997517;28;20029;-70
2021/03/14 00:59:14;;;;;;;12.45;5.93;;;3.60;99.90;;;;;;4997107;28;20030;-70
2021/03/14 01:01:40;;;;;;;10.57;5.38;;;3.60;99.90;;;;;;4997639;28;20077;-70
2021/03/14 01:04:06;;;;;;;9.50;4.95;;;3.60;99.90;;;;;;4997232;28;20041;-70
2021/03/14 01:06:32;;;;;;;11.15;6.25;;;3.60;99.90;;;;;;4998040;28;20042;-70
2021/03/14 01:08:58;;;;;;;10.55;5.65;;;3.60;99.90;;;;;;4997612;28;20056;-70
2021/03/14 01:11:24;;;;;;;14.70;6.38;;;3.70;99.90;;;;;;4997977;28;20037;-70
2021/03/14 01:13:50;;;;;;;9.95;6.22;;;3.70;99.90;;;;;;4998505;28;20532;-70
2021/03/14 01:16:16;;;;;;;10.07;5.82;;;3.70;99.90;;;;;;4996977;28;20119;-70
2021/03/14 01:18:42;;;;;;;9.73;6.05;;;3.70;99.90;;;;;;4996406;28;20068;-71
2021/03/14 01:21:08;;;;;;;9.30;5.85;;;3.70;99.90;;;;;;4999006;28;20057;-70
2021/03/14 01:23:35;;;;;;;11.93;6.57;;;3.70;99.90;;;;;;4997427;28;20034;-71
2021/03/14 01:26:01;;;;;;;9.95;5.63;;;3.70;99.90;;;;;;4997270;28;20046;-71
2021/03/14 01:28:26;;;;;;;9.85;6.05;;;3.70;99.90;;;;;;4998913;28;20030;-71
2021/03/14 01:30:52;;;;;;;12.93;6.25;;;3.80;99.90;;;;;;4998432;28;20025;-71
2021/03/14 01:33:18;;;;;;;10.45;5.93;;;3.70;99.90;;;;;;4997943;28;20065;-71
2021/03/14 01:35:44;;;;;;;10.88;6.20;;;3.80;99.90;;;;;;4997901;28;20041;-70
2021/03/14 01:38:09;;;;;;;10.85;6.43;;;3.80;99.90;;;;;;4997152;28;20169;-71
2021/03/14 01:40:36;;;;;;;10.95;6.25;;;3.80;99.90;;;;;;4999096;28;20053;-71
2021/03/14 01:43:02;;;;;;;11.25;5.80;;;3.80;99.90;;;;;;4999787;28;20635;-71
2021/03/14 01:45:28;;;;;;;10.70;5.88;;;3.80;99.90;;;;;;4999189;28;20069;-70
2021/03/14 01:47:54;;;;;;;10.65;6.07;;;3.80;99.90;;;;;;4999252;28;20128;-70
2021/03/14 01:50:25;;;;;;;10.35;5.72;;;3.80;99.90;;;;;;4997928;28;20753;-71
2021/03/14 01:52:52;;;;;;;11.45;6.28;;;3.80;99.90;;;;;;4998042;28;20590;-70
2021/03/14 01:55:20;;;;;;;8.70;5.40;;;3.80;99.90;;;;;;4997754;28;20041;-71
2021/03/14 01:57:47;;;;;;;10.13;5.22;;;3.80;99.90;;;;;;4997278;28;20061;-70
2021/03/14 02:00:16;;;;;;;9.88;5.78;;;3.80;99.90;;;;;;4997695;28;20022;-70
2021/03/14 02:02:43;;;;;;;10.15;5.78;;;3.90;99.90;;;;;;4997231;28;20843;-70
2021/03/14 02:05:11;;;;;;;10.75;5.40;;;3.90;99.90;;;;;;4997390;28;20121;-70
2021/03/14 02:07:40;;;;;;;10.60;5.72;;;3.90;99.90;;;;;;4996249;28;20073;-71
2021/03/14 02:10:10;;;;;;;9.15;5.32;;;3.90;99.90;;;;;;4997755;28;20025;-70
2021/03/14 02:12:42;;;;;;;9.07;5.57;;;3.90;99.90;;;;;;4998372;28;20076;-71
2021/03/14 02:15:09;;;;;;;9.82;4.88;;;3.90;99.90;;;;;;4998751;28;20749;-70
2021/03/14 02:17:38;;;;;;;8.10;4.72;;;3.90;99.90;;;;;;5000265;28;20033;-70
2021/03/14 02:20:14;;;;;;;9.68;4.70;;;4.00;99.90;;;;;;4995823;28;20053;-70
2021/03/14 02:22:45;;;;;;;9.13;4.75;;;4.00;99.90;;;;;;4999198;28;20053;-70
2021/03/14 02:25:20;;;;;;;9.50;5.00;;;4.00;99.90;;;;;;4998522;28;20046;-70
2021/03/14 02:27:46;;;;;;;10.50;4.45;;;3.90;99.90;;;;;;4999681;28;20148;-70
2021/03/14 02:30:13;;;;;;;9.38;3.80;;;3.90;99.90;;;;;;4998565;28;20580;-70
2021/03/14 02:32:40;;;;;;;5.53;3.55;;;3.90;99.90;;;;;;4999871;28;20567;-71
2021/03/14 02:35:08;;;;;;;5.90;3.72;;;3.90;99.90;;;;;;4998038;28;20038;-71
2021/03/14 02:37:35;;;;;;;8.52;4.10;;;3.90;99.90;;;;;;4998318;28;20033;-70
2021/03/14 02:40:03;;;;;;;7.80;4.00;;;3.90;99.90;;;;;;4998720;28;20029;-70
2021/03/14 02:42:30;;;;;;;6.22;3.50;;;3.90;99.90;;;;;;4997288;28;20035;-70
2021/03/14 02:44:57;;;;;;;8.10;3.88;;;3.90;99.90;;;;;;4998512;28;20034;-70
2021/03/14 02:47:24;;;;;;;5.53;3.00;;;3.90;99.90;;;;;;4998801;28;20409;-70
2021/03/14 02:49:52;;;;;;;8.18;3.40;;;3.90;99.90;;;;;;4997441;28;20038;-71
2021/03/14 02:52:20;;;;;;;7.28;3.30;;;4.00;99.90;;;;;;5002625;28;20041;-70
2021/03/14 02:54:48;;;;;;;6.03;3.47;;;4.00;99.90;;;;;;5002007;28;20108;-70
2021/03/14 02:57:18;;;;;;;8.63;4.00;;;3.90;99.90;;;;;;5000741;28;20091;-71
2021/03/14 02:59:45;;;;;;;12.95;3.83;;;3.90;99.90;;;;;;4998411;28;20026;-70
2021/03/14 03:02:11;;;;;;;9.48;4.53;;;3.90;99.90;;;;;;5000217;28;20108;-70
2021/03/14 03:04:37;;;;;;;9.57;3.75;;;3.80;99.90;;;;;;4999780;28;20062;-70
2021/03/14 03:07:04;;;;;;;13.38;4.13;;;3.80;99.90;;;;;;5000181;28;20120;-70
2021/03/14 03:09:31;;;;;;;12.40;5.00;;;3.80;99.90;;;;;;5000349;28;20188;-70
2021/03/14 03:11:57;;;;;;;15.60;5.05;;;3.80;99.90;;;;;;5000202;28;20056;-70
2021/03/14 03:14:28;;;;;;;14.85;4.88;;;3.80;99.90;;;;;;4998611;28;20034;-70
2021/03/14 03:16:54;;;;;;;16.17;5.82;;;3.70;99.90;;;;;;4998585;28;20160;-70
2021/03/14 03:19:21;;;;;;;8.27;4.32;;;3.70;99.90;;;;;;4996857;28;20088;-70
2021/03/14 03:21:48;;;;;;;12.30;4.72;;;3.60;99.90;;;;;;5000594;28;20100;-70
2021/03/14 03:24:14;;;;;;;13.13;5.47;;;3.60;99.90;;;;;;4999773;28;20116;-70
2021/03/14 03:26:44;;;;;;;14.23;4.68;;;3.60;99.90;;;;;;4999288;28;20050;-71
2021/03/14 03:29:10;;;;;;;9.20;4.90;;;3.50;99.90;;;;;;4999330;28;20022;-71
2021/03/14 03:31:37;;;;;;;7.43;4.38;;;3.40;99.90;;;;;;4998762;28;20038;-70
2021/03/14 03:34:04;;;;;;;13.35;4.60;;;3.40;99.90;;;;;;4997581;28;20099;-70
2021/03/14 03:36:30;;;;;;;16.52;5.22;;;3.30;99.90;;;;;;4999152;28;20029;-70
2021/03/14 03:38:56;;;;;;;14.85;4.80;;;3.40;99.90;;;;;;4998807;28;20032;-70
2021/03/14 03:41:23;;;;;;;13.82;5.28;;;3.40;99.90;;;;;;4999405;28;20451;-70
2021/03/14 03:43:51;;;;;;;21.83;5.45;;;3.40;99.90;;;;;;4999059;28;20029;-70
2021/03/14 03:46:20;;;;;;;15.23;5.35;;;3.40;99.90;;;;;;4999070;28;20038;-70
2021/03/14 03:48:52;;;;;;;11.88;5.05;;;3.30;99.90;;;;;;4998059;28;20088;-70
2021/03/14 03:51:30;;;;;;;14.23;4.97;;;3.30;99.90;;;;;;4997120;28;20045;-70
2021/03/14 03:53:59;;;;;;;17.05;5.80;;;3.20;99.90;;;;;;4998750;28;20040;-70
2021/03/14 03:56:26;;;;;;;18.45;5.70;;;3.10;99.90;;;;;;4997979;28;20776;-70
2021/03/14 03:58:53;;;;;;;21.45;5.90;;;3.10;99.90;;;;;;4998167;28;20826;-70
2021/03/14 04:01:19;;;;;;;17.20;6.55;;;3.10;99.90;;;;;;4998044;28;20351;-70
2021/03/14 04:03:47;;;;;;;21.40;5.90;;;3.10;99.90;;;;;;4998063;28;20525;-70
2021/03/14 04:06:15;;;;;;;26.00;6.35;;;3.00;99.90;;;;;;4998264;28;20088;-71
2021/03/14 04:08:43;;;;;;;24.63;5.65;;;3.10;99.90;;;;;;4999601;28;20034;-70
2021/03/14 04:11:16;;;;;;;19.48;6.00;;;3.00;99.90;;;;;;5000850;28;20033;-71
2021/03/14 04:13:44;;;;;;;25.38;5.78;;;3.00;99.90;;;;;;4997981;28;20040;-70
2021/03/14 04:16:14;;;;;;;30.63;6.00;;;3.00;99.90;;;;;;4998831;28;20025;-71
2021/03/14 04:18:42;;;;;;;30.38;7.55;;;3.00;99.90;;;;;;4997841;28;20104;-70
2021/03/14 04:21:12;;;;;;;30.05;5.70;;;3.00;99.90;;;;;;4995825;28;20037;-70
2021/03/14 04:23:40;;;;;;;38.53;7.43;;;3.10;99.90;;;;;;4998052;28;20533;-70
2021/03/14 04:26:06;;;;;;;38.47;8.82;;;3.00;99.90;;;;;;4998303;28;20050;-70
2021/03/14 04:28:34;;;;;;;34.42;6.72;;;3.00;99.90;;;;;;4997467;28;20547;-70
2021/03/14 04:31:00;;;;;;;28.80;6.82;;;3.10;99.90;;;;;;4998603;28;20055;-70
2021/03/14 04:33:29;;;;;;;37.13;7.38;;;3.10;99.90;;;;;;4998482;28;20111;-70
2021/03/14 04:35:59;;;;;;;37.60;7.57;;;3.00;99.90;;;;;;4997221;28;20026;-70
2021/03/14 04:38:27;;;;;;;;;;;3.00;99.90;;;;;;4998853;28;20401;-70
2021/03/14 04:40:57;;;;;;;37.45;8.82;;;3.10;99.90;;;;;;4997309;28;19914;-70
2021/03/14 04:43:24;;;;;;;33.90;7.57;;;3.10;99.90;;;;;;4998216;28;20026;-70
2021/03/14 04:45:51;;;;;;;36.42;8.40;;;3.10;99.90;;;;;;4997863;28;20478;-70
2021/03/14 04:48:19;;;;;;;28.88;7.22;;;3.10;99.90;;;;;;4996543;28;20092;-71
2021/03/14 04:50:46;;;;;;;28.63;7.70;;;3.10;99.90;;;;;;4998632;28;20535;-71
2021/03/14 04:53:13;;;;;;;29.80;9.15;;;3.10;99.90;;;;;;4997991;28;20373;-70
2021/03/14 04:55:41;;;;;;;38.90;8.38;;;3.00;99.90;;;;;;4996500;28;20652;-70
2021/03/14 04:58:11;;;;;;;33.17;8.38;;;3.00;99.90;;;;;;4998435;28;20144;-70
2021/03/14 05:00:37;;;;;;;24.92;7.45;;;3.00;99.90;;;;;;4997116;28;20033;-70
2021/03/14 05:03:09;;;;;;;33.63;8.00;;;2.90;99.90;;;;;;4998262;28;20148;-70
2021/03/14 05:05:37;;;;;;;29.67;6.35;;;3.00;99.90;;;;;;4997142;28;20034;-70
2021/03/14 05:08:04;;;;;;;32.95;7.22;;;2.90;99.90;;;;;;4998473;28;20548;-70
2021/03/14 05:10:30;;;;;;;25.85;7.40;;;2.90;99.90;;;;;;4999351;28;20196;-70
2021/03/14 05:12:56;;;;;;;23.13;7.32;;;2.90;99.90;;;;;;4995583;28;20038;-70
2021/03/14 05:15:22;;;;;;;30.42;6.80;;;3.00;99.90;;;;;;4996549;28;20030;-70
2021/03/14 05:17:49;;;;;;;22.60;6.82;;;3.00;99.90;;;;;;4997465;28;20371;-70
2021/03/14 05:20:19;;;;;;;30.58;6.55;;;2.90;99.90;;;;;;4996667;28;20033;-70
2021/03/14 05:22:50;;;;;;;28.58;6.10;;;2.90;99.90;;;;;;4998422;28;20032;-70
2021/03/14 05:25:19;;;;;;;27.95;7.00;;;2.80;99.90;;;;;;4997566;28;20068;-70
2021/03/14 05:27:51;;;;;;;21.02;5.63;;;2.80;99.90;;;;;;4996793;28;20038;-70
2021/03/14 05:30:22;;;;;;;28.50;7.03;;;2.80;99.90;;;;;;4994768;28;20072;-70
2021/03/14 05:32:48;;;;;;;;;;;2.70;99.90;;;;;;4997309;28;20053;-70
2021/03/14 05:35:15;;;;;;;26.95;5.70;;;2.60;99.90;;;;;;4997840;28;20337;-70
2021/03/14 05:37:41;;;;;;;21.98;5.65;;;2.50;99.90;;;;;;4979445;28;20049;-70
2021/03/14 05:40:07;;;;;;;28.55;6.68;;;2.60;99.90;;;;;;4995202;28;20028;-70
2021/03/14 05:42:34;;;;;;;30.83;6.70;;;2.60;99.90;;;;;;4996866;28;20096;-70
2021/03/14 05:45:00;;;;;;;30.48;6.90;;;2.60;99.90;;;;;;4994817;28;20136;-70
2021/03/14 05:47:26;;;;;;;33.15;5.97;;;2.60;99.90;;;;;;4997664;28;20071;-70
2021/03/14 05:49:52;;;;;;;30.55;7.25;;;2.70;99.90;;;;;;4996842;28;20030;-70
2021/03/14 05:52:19;;;;;;;30.52;6.40;;;2.70;99.90;;;;;;4999079;28;20031;-70
2021/03/14 05:54:46;;;;;;;39.47;8.25;;;2.80;99.90;;;;;;5013002;28;20033;-70
2021/03/14 05:57:16;;;;;;;51.80;9.27;;;2.80;99.90;;;;;;4993637;28;20057;-70
2021/03/14 05:59:43;;;;;;;37.28;9.20;;;2.80;99.90;;;;;;4997118;28;20025;-70
2021/03/14 06:02:09;;;;;;;33.17;8.18;;;2.80;99.90;;;;;;4996190;28;20041;-70
2021/03/14 06:04:35;;;;;;;31.75;7.60;;;2.80;99.90;;;;;;4998168;28;20045;-70
2021/03/14 06:07:01;;;;;;;32.40;9.82;;;2.80;99.90;;;;;;4997481;28;20061;-70
2021/03/14 06:09:27;;;;;;;30.83;8.60;;;2.80;99.90;;;;;;4997638;28;20022;-70
2021/03/14 06:11:53;;;;;;;34.92;7.18;;;2.80;99.90;;;;;;4999552;28;20045;-70
2021/03/14 06:14:19;;;;;;;24.35;6.82;;;2.80;99.90;;;;;;4999557;28;20026;-70
2021/03/14 06:16:44;;;;;;;32.85;7.70;;;2.80;99.90;;;;;;4998934;28;20080;-69
2021/03/14 06:19:11;;;;;;;25.20;7.25;;;2.80;99.90;;;;;;4999189;28;20505;-70
2021/03/14 06:21:37;;;;;;;23.50;6.65;;;2.90;99.90;;;;;;4996817;28;20485;-70
2021/03/14 06:24:10;;;;;;;32.05;7.45;;;2.90;99.90;;;;;;4998713;28;20025;-70
2021/03/14 06:26:47;;;;;;;35.97;7.78;;;3.00;99.90;;;;;;5002529;28;20042;-70
2021/03/14 06:29:19;;;;;;;29.75;8.05;;;3.00;99.90;;;;;;5001115;28;20030;-70
2021/03/14 06:31:56;;;;;;;32.20;9.20;;;3.10;99.90;;;;;;5002666;28;20025;-70
2021/03/14 06:34:31;;;;;;;28.83;8.43;;;3.20;99.90;;;;;;5001512;28;20026;-70
2021/03/14 06:37:15;;;;;;;32.20;8.40;;;3.30;99.90;;;;;;5001975;28;20544;-71
2021/03/14 06:39:47;;;;;;;33.78;8.63;;;3.40;99.90;;;;;;5002506;28;20060;-71
2021/03/14 06:42:36;;;;;;;36.97;9.15;;;3.70;99.90;;;;;;5003044;28;20044;-70
2021/03/14 06:45:12;;;;;;;44.13;9.90;;;3.90;99.90;;;;;;5001449;28;20026;-70
2021/03/14 06:47:46;;;;;;;35.53;9.30;;;4.10;99.90;;;;;;5002370;28;20473;-71
2021/03/14 06:50:32;;;;;;;43.75;10.65;;;4.30;99.90;;;;;;5001663;28;20057;-70
2021/03/14 06:53:11;;;;;;;45.33;9.15;;;4.40;99.90;;;;;;4998710;28;20069;-70
2021/03/14 06:55:40;;;;;;;31.42;7.97;;;4.40;99.90;;;;;;5001594;28;20137;-71
2021/03/14 06:58:19;;;;;;;34.40;8.13;;;4.40;99.90;;;;;;5001529;28;20037;-71
2021/03/14 07:01:06;;;;;;;31.40;9.60;;;4.40;99.90;;;;;;5000395;28;20033;-71
2021/03/14 07:03:32;;;;;;;26.60;7.18;;;4.40;99.90;;;;;;5002676;28;20033;-71
2021/03/14 07:06:24;;;;;;;23.00;7.35;;;4.40;99.90;;;;;;5001273;28;20042;-71
2021/03/14 07:08:53;;;;;;;28.40;6.53;;;4.40;99.90;;;;;;5001103;28;20030;-71
2021/03/14 07:11:55;;;;;;;28.73;7.35;;;4.30;99.90;;;;;;4998545;28;20052;-71
2021/03/14 07:14:21;;;;;;;30.10;6.32;;;4.40;99.90;;;;;;4992994;28;20046;-71
2021/03/14 07:16:51;;;;;;;24.45;6.85;;;4.60;99.90;;;;;;5000197;28;20038;-71
2021/03/14 07:19:27;;;;;;;22.85;5.82;;;4.70;99.90;;;;;;4999966;28;20554;-71
2021/03/14 07:22:04;;;;;;;28.98;6.13;;;5.00;99.90;;;;;;4998330;28;20116;-71
2021/03/14 07:24:38;;;;;;;30.52;5.88;;;5.30;99.90;;;;;;5001564;28;20169;-71
2021/03/14 07:27:08;;;;;;;18.23;5.57;;;5.50;99.90;;;;;;4998670;28;20042;-71
2021/03/14 07:29:35;;;;;;;33.97;4.43;;;5.60;99.90;;;;;;5000690;28;20033;-71
2021/03/14 07:32:03;;;;;;;14.68;4.82;;;5.50;99.90;;;;;;5000073;28;20133;-71
2021/03/14 07:34:28;;;;;;;17.65;4.00;;;5.60;99.90;;;;;;5001143;28;20034;-70
2021/03/14 07:36:54;;;;;;;20.52;4.93;;;5.80;99.90;;;;;;4999531;28;20037;-70
2021/03/14 07:39:21;;;;;;;17.27;3.53;;;6.00;99.90;;;;;;5001690;28;20064;-70
2021/03/14 07:41:48;;;;;;;15.27;4.30;;;6.30;99.90;;;;;;5000773;28;20045;-70
2021/03/14 07:44:18;;;;;;;14.85;3.55;;;6.60;99.90;;;;;;5001879;28;20030;-70
2021/03/14 07:46:45;;;;;;;11.98;3.38;;;6.50;99.90;;;;;;5000809;28;20529;-70
2021/03/14 07:49:15;;;;;;;18.05;3.97;;;6.40;99.90;;;;;;5002385;28;20033;-70
2021/03/14 07:51:45;;;;;;;;;;;6.40;99.90;;;;;;5000964;28;20880;-69
2021/03/14 07:54:13;;;;;;;;;;;6.30;99.90;;;;;;5000852;28;19917;-69
2021/03/14 07:56:39;;;;;;;19.75;3.50;;;6.20;99.90;;;;;;4998716;28;19918;-70
2021/03/14 07:59:09;;;;;;;20.70;3.97;;;6.20;99.90;;;;;;4999989;28;20069;-70
2021/03/14 08:01:37;;;;;;;18.08;3.33;;;6.20;99.90;;;;;;4998518;28;20218;-70
2021/03/14 08:04:03;;;;;;;26.85;4.43;;;6.30;99.90;;;;;;4999250;28;20503;-70
2021/03/14 08:06:41;;;;;;;11.20;2.42;;;6.50;99.90;;;;;;4999832;28;20029;-70
2021/03/14 08:09:07;;;;;;;13.20;2.58;;;6.40;99.90;;;;;;4996643;28;20520;-69
2021/03/14 08:11:33;;;;;;;15.45;2.80;;;6.50;99.90;;;;;;4998769;28;20030;-69
2021/03/14 08:13:58;;;;;;;16.73;2.78;;;6.60;99.90;;;;;;5000841;28;20076;-70
2021/03/14 08:16:24;;;;;;;21.27;3.13;;;6.80;99.90;;;;;;4999982;28;20525;-71
2021/03/14 08:18:52;;;;;;;11.82;2.33;;;7.10;99.90;;;;;;4982652;28;20099;-69
2021/03/14 08:21:21;;;;;;;16.52;2.78;;;7.40;99.90;;;;;;4998931;28;20041;-70
2021/03/14 08:23:52;;;;;;;19.60;3.53;;;7.60;99.90;;;;;;4994866;28;20046;-69
2021/03/14 08:26:22;;;;;;;19.38;3.42;;;7.70;99.90;;;;;;4988897;28;20111;-68
2021/03/14 08:29:11;;;;;;;14.80;2.88;;;7.60;99.90;;;;;;4997566;28;20032;-67
2021/03/14 08:31:46;;;;;;;19.88;3.38;;;7.60;99.90;;;;;;4997608;28;20116;-68
2021/03/14 08:34:30;;;;;;;16.05;3.30;;;7.90;99.90;;;;;;4999351;28;20044;-69
2021/03/14 08:36:57;;;;;;;18.45;4.13;;;8.10;99.90;;;;;;5000523;28;20065;-69
2021/03/14 08:39:28;;;;;;;20.52;3.00;;;7.90;99.90;;;;;;4998294;28;20243;-70
2021/03/14 08:41:59;;;;;;;15.23;2.78;;;7.50;99.90;;;;;;5000315;28;20034;-69
2021/03/14 08:44:33;;;;;;;22.95;3.55;;;7.60;99.90;;;;;;5000148;28;20033;-69
2021/03/14 08:47:03;;;;;;;16.20;2.35;;;7.70;99.90;;;;;;5001364;28;20037;-69
2021/03/14 08:49:29;;;;;;;19.15;3.05;;;7.80;99.90;;;;;;4998660;28;20836;-70
2021/03/14 08:51:56;;;;;;;16.40;2.83;;;8.00;99.90;;;;;;4998399;28;20089;-69
2021/03/14 08:54:51;;;;;;;14.10;3.58;;;8.40;99.90;;;;;;4999599;28;20701;-70
2021/03/14 08:57:18;;;;;;;23.35;3.45;;;8.80;99.90;;;;;;4996265;28;20154;-70
2021/03/14 08:59:56;;;;;;;21.05;3.67;;;9.00;99.90;;;;;;5000193;28;20669;-70
2021/03/14 09:02:30;;;;;;;20.70;3.25;;;8.80;99.90;;;;;;4999238;28;20635;-69
2021/03/14 09:05:16;;;;;;;23.42;2.97;;;8.80;99.90;;;;;;4998722;28;20112;-69
2021/03/14 09:07:43;;;;;;;18.27;3.58;;;8.90;99.90;;;;;;5000322;28;20041;-70
2021/03/14 09:10:15;;;;;;;20.92;3.22;;;8.90;99.90;;;;;;4999178;28;20037;-69
2021/03/14 09:12:42;;;;;;;17.95;3.90;;;8.60;99.90;;;;;;4998332;28;20038;-69
2021/03/14 09:15:12;;;;;;;24.42;4.40;;;8.40;99.90;;;;;;4999713;28;20774;-69
2021/03/14 09:17:40;;;;;;;28.95;3.40;;;8.50;99.90;;;;;;4999846;28;20036;-69
2021/03/14 09:20:08;;;;;;;29.63;6.55;;;8.90;99.90;;;;;;4999451;28;20591;-69
2021/03/14 09:22:36;;;;;;;21.40;3.55;;;9.30;99.90;;;;;;4999559;28;20030;-69
2021/03/14 09:25:13;;;;;;;15.13;2.92;;;9.30;99.90;;;;;;4999858;28;20033;-69
2021/03/14 09:27:44;;;;;;;20.20;3.70;;;9.10;99.90;;;;;;5000743;28;20128;-69
2021/03/14 09:30:11;;;;;;;19.02;4.57;;;9.20;99.90;;;;;;4997352;28;20053;-69
2021/03/14 09:32:41;;;;;;;25.27;3.65;;;9.20;99.90;;;;;;4997336;28;20029;-70
2021/03/14 09:35:20;;;;;;;15.60;3.15;;;9.00;99.90;;;;;;4999407;28;20025;-69
2021/03/14 09:37:49;;;;;;;16.80;3.08;;;9.10;99.90;;;;;;4997981;28;20271;-69
2021/03/14 09:40:19;;;;;;;19.33;3.23;;;8.90;99.90;;;;;;4999495;28;20021;-69
2021/03/14 09:42:48;;;;;;;21.75;3.45;;;8.70;99.90;;;;;;4999815;28;21378;-70
2021/03/14 09:45:19;;;;;;;26.77;4.85;;;8.60;99.90;;;;;;4997394;28;20037;-69
2021/03/14 09:48:02;;;;;;;19.77;3.88;;;8.60;99.90;;;;;;4999071;28;20689;-69
2021/03/14 09:50:29;;;;;;;28.98;3.45;;;8.60;99.90;;;;;;4999414;28;20474;-70
2021/03/14 09:53:00;;;;;;;17.17;3.38;;;8.70;99.90;;;;;;4998697;28;20152;-69
2021/03/14 09:55:34;;;;;;;32.05;4.05;;;8.90;99.90;;;;;;4999399;28;20082;-69
2021/03/14 09:58:00;;;;;;;20.88;3.47;;;8.90;99.90;;;;;;4998895;28;20058;-70
2021/03/14 10:00:33;;;;;;;17.45;3.97;;;9.00;99.90;;;;;;5001305;28;20040;-69
2021/03/14 10:03:10;;;;;;;23.40;3.53;;;8.70;99.90;;;;;;5002981;28;20037;-69
2021/03/14 10:05:38;;;;;;;18.60;3.30;;;8.70;99.90;;;;;;5003649;28;20142;-69
2021/03/14 10:08:05;;;;;;;24.52;4.35;;;9.10;99.90;;;;;;5001980;28;20048;-70
2021/03/14 10:10:31;;;;;;;23.15;3.70;;;9.70;99.90;;;;;;5003390;28;20073;-69
2021/03/14 10:12:58;;;;;;;19.08;3.78;;;10.30;99.90;;;;;;5003010;28;20158;-69
2021/03/14 10:15:24;;;;;;;18.85;2.90;;;10.20;99.90;;;;;;5003771;28;20049;-69
2021/03/14 10:17:50;;;;;;;18.77;3.72;;;10.10;99.90;;;;;;5003102;28;20130;-69
2021/03/14 10:20:20;;;;;;;24.00;3.47;;;9.90;99.90;;;;;;5002962;28;20042;-70
2021/03/14 10:22:46;;;;;;;24.92;4.10;;;9.80;99.90;;;;;;5003818;28;20054;-69
2021/03/14 10:25:26;;;;;;;21.25;4.10;;;9.90;99.90;;;;;;5001448;28;20140;-69
2021/03/14 10:28:07;;;;;;;28.10;5.38;;;10.40;99.90;;;;;;5002383;28;20049;-69
2021/03/14 10:30:33;;;;;;;18.08;3.55;;;10.70;99.90;;;;;;5001407;28;20030;-69
2021/03/14 10:32:59;;;;;;;18.67;3.45;;;10.80;99.90;;;;;;5003299;28;20057;-69
2021/03/14 10:35:25;;;;;;;35.65;4.85;;;11.10;99.90;;;;;;5000838;28;22209;-69
2021/03/14 10:37:51;;;;;;;27.13;4.15;;;11.20;99.90;;;;;;5001738;28;20088;-69
2021/03/14 10:40:23;;;;;;;22.42;3.75;;;11.30;99.90;;;;;;5003977;28;20030;-70
2021/03/14 10:42:49;;;;;;;20.70;4.00;;;11.20;99.90;;;;;;5002569;28;20037;-70
2021/03/14 10:45:19;;;;;;;21.55;4.10;;;10.90;99.90;;;;;;5001816;28;20377;-70
2021/03/14 10:47:57;;;;;;;;;;;10.30;99.90;;;;;;5002473;28;20041;-69
2021/03/14 10:50:29;;;;;;;21.25;5.28;;;10.40;99.90;;;;;;4998118;28;19924;-69
2021/03/14 10:53:27;;;;;;;25.02;4.00;;;10.30;99.90;;;;;;4998870;28;20518;-69
2021/03/14 10:56:07;;;;;;;20.83;3.15;;;10.00;99.90;;;;;;5004711;28;20042;-69
2021/03/14 10:58:39;;;;;;;24.50;3.42;;;9.80;99.90;;;;;;4999278;28;20084;-69
2021/03/14 11:01:07;;;;;;;22.98;4.15;;;9.80;99.90;;;;;;4998576;28;20117;-69
2021/03/14 11:03:40;;;;;;;23.95;4.57;;;9.60;99.90;;;;;;4996929;28;20030;-70
2021/03/14 11:06:18;;;;;;;25.63;4.32;;;9.40;99.90;;;;;;5000393;28;20053;-70
2021/03/14 11:08:53;;;;;;;17.85;2.65;;;9.50;99.90;;;;;;4999924;28;20579;-70
2021/03/14 11:11:23;;;;;;;16.80;2.53;;;9.20;99.90;;;;;;5000585;28;20681;-69
2021/03/14 11:13:51;;;;;;;24.52;3.78;;;8.80;99.90;;;;;;4999325;28;20557;-69
2021/03/14 11:16:17;;;;;;;25.58;3.78;;;8.80;99.90;;;;;;5000182;28;20056;-69
2021/03/14 11:18:43;;;;;;;23.02;3.33;;;8.90;99.90;;;;;;5003242;28;20057;-70
2021/03/14 11:21:10;;;;;;;21.77;3.28;;;8.80;99.90;;;;;;5001574;28;20580;-69
2021/03/14 11:23:36;;;;;;;25.05;3.10;;;8.70;99.90;;;;;;5001862;28;20225;-70
2021/03/14 11:26:01;;;;;;;25.45;4.15;;;9.00;99.90;;;;;;5001586;28;20785;-69
2021/03/14 11:28:27;;;;;;;19.08;4.13;;;9.30;99.90;;;;;;4999896;28;20053;-69
2021/03/14 11:30:55;;;;;;;16.90;3.03;;;9.70;99.90;;;;;;4998906;28;20422;-69
2021/03/14 11:33:21;;;;;;;23.10;3.00;;;10.10;99.90;;;;;;4997528;28;20622;-69
2021/03/14 11:35:46;;;;;;;24.83;3.45;;;10.10;99.90;;;;;;4998041;28;20030;-70
2021/03/14 11:38:12;;;;;;;23.00;5.00;;;9.90;99.90;;;;;;4999792;28;20131;-69
2021/03/14 11:40:38;;;;;;;22.95;3.63;;;9.60;99.90;;;;;;4999167;28;20101;-69
2021/03/14 11:43:05;;;;;;;18.95;3.83;;;9.20;99.90;;;;;;5001056;28;20040;-70
2021/03/14 11:45:31;;;;;;;23.73;3.38;;;8.90;99.90;;;;;;4998432;28;20658;-70
2021/03/14 11:47:57;;;;;;;19.85;3.28;;;8.60;99.90;;;;;;4998572;28;20064;-69
2021/03/14 11:50:23;;;;;;;14.43;3.60;;;8.40;99.90;;;;;;4995891;28;20378;-69
2021/03/14 11:52:51;;;;;;;22.90;3.65;;;8.50;99.90;;;;;;4995567;28;20556;-69
2021/03/14 11:55:17;;;;;;;29.92;4.10;;;8.40;99.90;;;;;;4999822;28;20968;-69
2021/03/14 11:57:43;;;;;;;21.20;4.38;;;8.40;99.90;;;;;;4996512;28;20143;-70
2021/03/14 12:00:10;;;;;;;21.88;3.15;;;8.40;99.90;;;;;;4997881;28;20830;-70
2021/03/14 12:02:36;;;;;;;27.42;3.67;;;8.30;99.90;;;;;;4997353;28;20371;-69
2021/03/14 12:05:03;;;;;;;9.13;2.03;;;8.30;99.90;;;;;;4999585;28;20022;-70
2021/03/14 12:07:30;;;;;;;14.70;3.42;;;8.20;99.90;;;;;;4992804;28;20073;-70
2021/03/14 12:09:56;;;;;;;11.13;2.17;;;8.00;99.90;;;;;;4999107;28;20069;-70
2021/03/14 12:12:22;;;;;;;19.63;3.00;;;8.10;99.90;;;;;;4998277;28;20033;-70
2021/03/14 12:14:47;;;;;;;17.63;3.30;;;8.00;99.90;;;;;;4998300;28;20033;-69
2021/03/14 12:17:13;;;;;;;18.42;3.10;;;8.10;99.90;;;;;;4994082;28;20038;-64
2021/03/14 12:19:39;;;;;;;16.10;2.63;;;8.10;99.90;;;;;;4993581;28;20050;-63
2021/03/14 12:22:05;;;;;;;14.80;2.70;;;8.20;99.90;;;;;;4996884;28;20097;-63
2021/03/14 12:24:31;;;;;;;15.85;3.78;;;8.40;99.90;;;;;;4998082;28;20034;-63
2021/03/14 12:26:57;;;;;;;29.42;3.63;;;8.60;99.90;;;;;;4995219;28;20101;-63
2021/03/14 12:29:23;;;;;;;23.02;4.43;;;8.70;99.90;;;;;;4998062;28;20343;-63
2021/03/14 12:31:49;;;;;;;19.70;3.85;;;8.60;99.90;;;;;;4997453;28;20040;-63
2021/03/14 12:34:15;;;;;;;22.20;3.22;;;8.60;99.90;;;;;;4995323;28;20083;-63
2021/03/14 12:36:40;;;;;;;19.70;4.15;;;8.70;99.90;;;;;;4997432;28;20441;-63
2021/03/14 12:39:07;;;;;;;21.45;3.97;;;8.80;99.90;;;;;;4995282;28;20030;-63
2021/03/14 12:41:33;;;;;;;22.10;3.72;;;9.00;99.90;;;;;;4999347;28;20560;-63
2021/03/14 12:43:59;;;;;;;26.65;3.80;;;9.20;99.90;;;;;;4996558;28;20047;-63
2021/03/14 12:46:25;;;;;;;22.88;3.25;;;9.10;99.90;;;;;;4999159;28;20042;-63
2021/03/14 12:48:51;;;;;;;18.65;3.53;;;8.90;99.90;;;;;;4996286;28;20029;-63
2021/03/14 12:51:17;;;;;;;20.17;3.30;;;8.70;99.90;;;;;;4991604;28;20038;-63
2021/03/14 12:53:43;;;;;;;27.65;3.80;;;8.50;99.90;;;;;;4996268;28;20025;-63
2021/03/14 12:56:09;;;;;;;16.60;2.92;;;8.60;99.90;;;;;;4997352;28;20203;-63